sensor_id;sensor_type;location;lat;lon;timestamp;P1;durP1;ratioP1;P2;durP2;ratioP2
10333;SDS011;5212;47.892;16.406;2023-02-08T00:01:46;27.97;;;16.00;;
10333;SDS011;5212;47.892;16.406;2023-02-08T00:04:13;28.03;;;16.33;;
10333;SDS011;5212;47.892;16.406;2023-02-08T00:06:39;31.07;;;17.70;;
10333;SDS011;5212;47.892;16.406;2023-02-08T00:09:07;29.33;;;15.70;;
10333;SDS011;5212;47.892;16.406;2023-02-08T00:11:34;29.17;;;16.80;;
10333;SDS011;5212;47.892;16.406;2023-02-08T00:14:00;30.67;;;16.40;;
10333;SDS011;5212;47.892;16.406;2023-02-08T00:16:27;24.23;;;14.27;;
10333;SDS011;5212;47.892;16.406;2023-02-08T00:18:53;30.73;;;15.57;;
10333;SDS011;5212;47.892;16.406;2023-02-08T00:21:20;26.90;;;15.80;;
10333;SDS011;5212;47.892;16.406;2023-02-08T00:23:48;26.43;;;14.97;;
10333;SDS011;5212;47.892;16.406;2023-02-08T00:26:15;29.03;;;16.27;;
10333;SDS011;5212;47.892;16.406;2023-02-08T00:28:42;29.60;;;16.20;;
10333;SDS011;5212;47.892;16.406;2023-02-08T00:31:08;27.10;;;16.67;;
10333;SDS011;5212;47.892;16.406;2023-02-08T00:33:35;30.53;;;16.97;;
10333;SDS011;5212;47.892;16.406;2023-02-08T00:36:04;35.80;;;18.27;;
10333;SDS011;5212;47.892;16.406;2023-02-08T00:38:32;33.80;;;18.00;;
10333;SDS011;5212;47.892;16.406;2023-02-08T00:40:58;28.23;;;16.93;;
10333;SDS011;5212;47.892;16.406;2023-02-08T00:43:26;28.00;;;14.93;;
10333;SDS011;5212;47.892;16.406;2023-02-08T00:45:53;27.90;;;15.80;;
10333;SDS011;5212;47.892;16.406;2023-02-08T00:48:20;27.37;;;15.90;;
10333;SDS011;5212;47.892;16.406;2023-02-08T00:50:55;23.50;;;14.50;;
10333;SDS011;5212;47.892;16.406;2023-02-08T00:53:23;30.77;;;16.70;;
10333;SDS011;5212;47.892;16.406;2023-02-08T00:55:50;28.23;;;15.87;;
10333;SDS011;5212;47.892;16.406;2023-02-08T00:58:19;28.33;;;15.50;;
10333;SDS011;5212;47.892;16.406;2023-02-08T01:00:48;26.47;;;15.07;;
10333;SDS011;5212;47.892;16.406;2023-02-08T01:03:15;28.50;;;14.93;;
10333;SDS011;5212;47.892;16.406;2023-02-08T01:05:42;24.40;;;13.93;;
10333;SDS011;5212;47.892;16.406;2023-02-08T01:08:08;25.47;;;14.50;;
10333;SDS011;5212;47.892;16.406;2023-02-08T01:10:35;30.03;;;16.13;;
10333;SDS011;5212;47.892;16.406;2023-02-08T01:13:01;28.00;;;16.53;;
10333;SDS011;5212;47.892;16.406;2023-02-08T01:15:28;29.47;;;17.30;;
10333;SDS011;5212;47.892;16.406;2023-02-08T01:17:57;28.93;;;16.50;;
10333;SDS011;5212;47.892;16.406;2023-02-08T01:20:24;32.43;;;16.13;;
10333;SDS011;5212;47.892;16.406;2023-02-08T01:22:50;26.57;;;16.00;;
10333;SDS011;5212;47.892;16.406;2023-02-08T01:25:16;29.90;;;16.73;;
10333;SDS011;5212;47.892;16.406;2023-02-08T01:27:43;33.47;;;17.87;;
10333;SDS011;5212;47.892;16.406;2023-02-08T01:30:10;36.43;;;18.30;;
10333;SDS011;5212;47.892;16.406;2023-02-08T01:32:37;32.83;;;17.70;;
10333;SDS011;5212;47.892;16.406;2023-02-08T01:35:06;32.43;;;16.27;;
10333;SDS011;5212;47.892;16.406;2023-02-08T01:37:32;30.20;;;17.03;;
10333;SDS011;5212;47.892;16.406;2023-02-08T01:39:59;31.73;;;16.97;;
10333;SDS011;5212;47.892;16.406;2023-02-08T01:42:25;32.60;;;17.63;;
10333;SDS011;5212;47.892;16.406;2023-02-08T01:47:48;33.67;;;17.50;;
10333;SDS011;5212;47.892;16.406;2023-02-08T01:50:18;32.90;;;17.47;;
10333;SDS011;5212;47.892;16.406;2023-02-08T01:52:46;30.50;;;17.10;;
10333;SDS011;5212;47.892;16.406;2023-02-08T01:55:14;35.27;;;18.07;;
10333;SDS011;5212;47.892;16.406;2023-02-08T01:57:45;31.77;;;18.20;;
10333;SDS011;5212;47.892;16.406;2023-02-08T02:00:14;33.63;;;19.03;;
10333;SDS011;5212;47.892;16.406;2023-02-08T02:02:43;37.10;;;19.80;;
10333;SDS011;5212;47.892;16.406;2023-02-08T02:05:11;34.90;;;19.70;;
10333;SDS011;5212;47.892;16.406;2023-02-08T02:07:39;34.70;;;18.87;;
10333;SDS011;5212;47.892;16.406;2023-02-08T02:10:07;39.87;;;19.80;;
10333;SDS011;5212;47.892;16.406;2023-02-08T02:12:35;32.63;;;18.10;;
10333;SDS011;5212;47.892;16.406;2023-02-08T02:15:03;37.10;;;20.00;;
10333;SDS011;5212;47.892;16.406;2023-02-08T02:17:29;29.93;;;17.90;;
10333;SDS011;5212;47.892;16.406;2023-02-08T02:19:58;35.50;;;19.97;;
10333;SDS011;5212;47.892;16.406;2023-02-08T02:22:38;29.77;;;16.90;;
10333;SDS011;5212;47.892;16.406;2023-02-08T02:28:47;35.40;;;19.87;;
10333;SDS011;5212;47.892;16.406;2023-02-08T02:34:21;37.83;;;19.97;;
10333;SDS011;5212;47.892;16.406;2023-02-08T02:36:50;33.03;;;17.13;;
10333;SDS011;5212;47.892;16.406;2023-02-08T02:39:19;35.20;;;17.50;;
10333;SDS011;5212;47.892;16.406;2023-02-08T02:41:52;31.33;;;17.17;;
10333;SDS011;5212;47.892;16.406;2023-02-08T02:44:41;31.23;;;16.83;;
10333;SDS011;5212;47.892;16.406;2023-02-08T02:47:14;36.17;;;19.53;;
10333;SDS011;5212;47.892;16.406;2023-02-08T02:49:46;32.73;;;17.37;;
10333;SDS011;5212;47.892;16.406;2023-02-08T02:52:15;34.63;;;17.47;;
10333;SDS011;5212;47.892;16.406;2023-02-08T02:54:44;30.53;;;16.97;;
10333;SDS011;5212;47.892;16.406;2023-02-08T02:57:13;27.87;;;15.27;;
10333;SDS011;5212;47.892;16.406;2023-02-08T02:59:42;30.30;;;16.80;;
10333;SDS011;5212;47.892;16.406;2023-02-08T03:02:09;32.60;;;18.00;;
10333;SDS011;5212;47.892;16.406;2023-02-08T03:04:50;34.37;;;18.80;;
10333;SDS011;5212;47.892;16.406;2023-02-08T03:10:18;32.83;;;18.57;;
10333;SDS011;5212;47.892;16.406;2023-02-08T03:12:53;30.53;;;16.33;;
10333;SDS011;5212;47.892;16.406;2023-02-08T03:15:26;33.67;;;18.10;;
10333;SDS011;5212;47.892;16.406;2023-02-08T03:17:58;27.60;;;15.33;;
10333;SDS011;5212;47.892;16.406;2023-02-08T03:20:31;28.37;;;15.77;;
10333;SDS011;5212;47.892;16.406;2023-02-08T03:23:05;30.03;;;17.70;;
10333;SDS011;5212;47.892;16.406;2023-02-08T03:25:35;30.07;;;15.57;;
10333;SDS011;5212;47.892;16.406;2023-02-08T03:28:07;26.57;;;15.20;;
10333;SDS011;5212;47.892;16.406;2023-02-08T03:30:38;25.33;;;14.43;;
10333;SDS011;5212;47.892;16.406;2023-02-08T03:33:14;33.20;;;17.83;;
10333;SDS011;5212;47.892;16.406;2023-02-08T03:35:46;33.73;;;18.77;;
10333;SDS011;5212;47.892;16.406;2023-02-08T03:38:15;28.60;;;15.60;;
10333;SDS011;5212;47.892;16.406;2023-02-08T03:40:44;26.07;;;13.53;;
10333;SDS011;5212;47.892;16.406;2023-02-08T03:43:14;22.00;;;13.20;;
10333;SDS011;5212;47.892;16.406;2023-02-08T03:45:43;34.57;;;18.80;;
10333;SDS011;5212;47.892;16.406;2023-02-08T03:48:12;29.60;;;16.67;;
10333;SDS011;5212;47.892;16.406;2023-02-08T03:50:43;27.57;;;14.70;;
10333;SDS011;5212;47.892;16.406;2023-02-08T03:53:12;31.23;;;17.03;;
10333;SDS011;5212;47.892;16.406;2023-02-08T03:55:40;29.23;;;16.30;;
10333;SDS011;5212;47.892;16.406;2023-02-08T03:58:09;29.87;;;16.43;;
10333;SDS011;5212;47.892;16.406;2023-02-08T04:00:39;31.53;;;17.90;;
10333;SDS011;5212;47.892;16.406;2023-02-08T04:03:09;45.20;;;24.80;;
10333;SDS011;5212;47.892;16.406;2023-02-08T04:05:40;42.63;;;22.40;;
10333;SDS011;5212;47.892;16.406;2023-02-08T04:08:08;40.13;;;21.47;;
10333;SDS011;5212;47.892;16.406;2023-02-08T04:10:34;46.53;;;24.87;;
10333;SDS011;5212;47.892;16.406;2023-02-08T04:13:01;41.07;;;22.47;;
10333;SDS011;5212;47.892;16.406;2023-02-08T04:15:28;36.87;;;20.37;;
10333;SDS011;5212;47.892;16.406;2023-02-08T04:17:55;42.70;;;23.93;;
10333;SDS011;5212;47.892;16.406;2023-02-08T04:20:21;45.30;;;27.60;;
10333;SDS011;5212;47.892;16.406;2023-02-08T04:22:48;37.87;;;21.53;;
10333;SDS011;5212;47.892;16.406;2023-02-08T04:25:15;43.13;;;24.23;;
10333;SDS011;5212;47.892;16.406;2023-02-08T04:27:41;40.70;;;20.80;;
10333;SDS011;5212;47.892;16.406;2023-02-08T04:30:08;37.63;;;19.93;;
10333;SDS011;5212;47.892;16.406;2023-02-08T04:32:35;35.83;;;18.80;;
10333;SDS011;5212;47.892;16.406;2023-02-08T04:35:02;36.13;;;18.87;;
10333;SDS011;5212;47.892;16.406;2023-02-08T04:37:29;32.27;;;16.80;;
10333;SDS011;5212;47.892;16.406;2023-02-08T04:39:56;27.37;;;15.03;;
10333;SDS011;5212;47.892;16.406;2023-02-08T04:42:24;29.20;;;15.17;;
10333;SDS011;5212;47.892;16.406;2023-02-08T04:44:50;28.13;;;14.57;;
10333;SDS011;5212;47.892;16.406;2023-02-08T04:47:16;24.03;;;13.67;;
10333;SDS011;5212;47.892;16.406;2023-02-08T04:49:43;27.47;;;15.73;;
10333;SDS011;5212;47.892;16.406;2023-02-08T04:52:09;30.60;;;16.53;;
10333;SDS011;5212;47.892;16.406;2023-02-08T04:54:35;34.80;;;17.60;;
10333;SDS011;5212;47.892;16.406;2023-02-08T04:57:02;28.87;;;16.43;;
10333;SDS011;5212;47.892;16.406;2023-02-08T04:59:30;35.67;;;18.27;;
10333;SDS011;5212;47.892;16.406;2023-02-08T05:01:57;38.33;;;19.93;;
10333;SDS011;5212;47.892;16.406;2023-02-08T05:04:24;33.87;;;17.93;;
10333;SDS011;5212;47.892;16.406;2023-02-08T05:06:51;34.67;;;18.20;;
10333;SDS011;5212;47.892;16.406;2023-02-08T05:09:17;32.40;;;17.63;;
10333;SDS011;5212;47.892;16.406;2023-02-08T05:11:44;37.80;;;20.23;;
10333;SDS011;5212;47.892;16.406;2023-02-08T05:14:10;36.87;;;19.97;;
10333;SDS011;5212;47.892;16.406;2023-02-08T05:16:38;35.50;;;17.73;;
10333;SDS011;5212;47.892;16.406;2023-02-08T05:19:04;39.97;;;20.80;;
10333;SDS011;5212;47.892;16.406;2023-02-08T05:21:31;41.73;;;21.30;;
10333;SDS011;5212;47.892;16.406;2023-02-08T05:23:57;39.57;;;20.90;;
10333;SDS011;5212;47.892;16.406;2023-02-08T05:26:25;43.63;;;20.87;;
10333;SDS011;5212;47.892;16.406;2023-02-08T05:28:51;45.37;;;23.23;;
10333;SDS011;5212;47.892;16.406;2023-02-08T05:31:18;45.07;;;23.10;;
10333;SDS011;5212;47.892;16.406;2023-02-08T05:33:48;49.87;;;24.83;;
10333;SDS011;5212;47.892;16.406;2023-02-08T05:36:14;48.37;;;24.33;;
10333;SDS011;5212;47.892;16.406;2023-02-08T05:38:41;45.67;;;23.03;;
10333;SDS011;5212;47.892;16.406;2023-02-08T05:41:08;46.70;;;24.17;;
10333;SDS011;5212;47.892;16.406;2023-02-08T05:43:35;92.90;;;44.23;;
10333;SDS011;5212;47.892;16.406;2023-02-08T05:46:02;67.67;;;34.27;;
10333;SDS011;5212;47.892;16.406;2023-02-08T05:48:28;78.30;;;38.50;;
10333;SDS011;5212;47.892;16.406;2023-02-08T05:50:56;85.57;;;41.50;;
10333;SDS011;5212;47.892;16.406;2023-02-08T05:53:23;74.53;;;35.07;;
10333;SDS011;5212;47.892;16.406;2023-02-08T05:55:49;63.37;;;31.13;;
10333;SDS011;5212;47.892;16.406;2023-02-08T05:58:16;61.60;;;28.83;;
10333;SDS011;5212;47.892;16.406;2023-02-08T06:00:42;67.93;;;34.83;;
10333;SDS011;5212;47.892;16.406;2023-02-08T06:03:09;70.63;;;33.67;;
10333;SDS011;5212;47.892;16.406;2023-02-08T06:05:36;63.83;;;29.30;;
10333;SDS011;5212;47.892;16.406;2023-02-08T06:08:04;55.93;;;26.60;;
10333;SDS011;5212;47.892;16.406;2023-02-08T06:10:30;46.27;;;22.83;;
10333;SDS011;5212;47.892;16.406;2023-02-08T06:12:56;52.60;;;25.50;;
10333;SDS011;5212;47.892;16.406;2023-02-08T06:15:23;48.60;;;24.93;;
10333;SDS011;5212;47.892;16.406;2023-02-08T06:17:49;46.20;;;22.03;;
10333;SDS011;5212;47.892;16.406;2023-02-08T06:20:16;48.80;;;23.70;;
10333;SDS011;5212;47.892;16.406;2023-02-08T06:22:43;54.23;;;26.83;;
10333;SDS011;5212;47.892;16.406;2023-02-08T06:25:10;52.33;;;25.67;;
10333;SDS011;5212;47.892;16.406;2023-02-08T06:27:37;47.40;;;24.33;;
10333;SDS011;5212;47.892;16.406;2023-02-08T06:30:04;50.03;;;25.23;;
10333;SDS011;5212;47.892;16.406;2023-02-08T06:32:31;46.13;;;22.03;;
10333;SDS011;5212;47.892;16.406;2023-02-08T06:34:58;37.23;;;19.90;;
10333;SDS011;5212;47.892;16.406;2023-02-08T06:37:24;37.73;;;19.83;;
10333;SDS011;5212;47.892;16.406;2023-02-08T06:39:51;49.90;;;25.07;;
10333;SDS011;5212;47.892;16.406;2023-02-08T06:42:18;46.30;;;25.23;;
10333;SDS011;5212;47.892;16.406;2023-02-08T06:44:45;43.37;;;21.50;;
10333;SDS011;5212;47.892;16.406;2023-02-08T06:47:14;42.03;;;21.70;;
10333;SDS011;5212;47.892;16.406;2023-02-08T06:49:40;33.67;;;17.80;;
10333;SDS011;5212;47.892;16.406;2023-02-08T06:52:07;40.57;;;21.63;;
10333;SDS011;5212;47.892;16.406;2023-02-08T06:54:33;46.70;;;23.03;;
10333;SDS011;5212;47.892;16.406;2023-02-08T06:57:00;46.73;;;21.87;;
10333;SDS011;5212;47.892;16.406;2023-02-08T06:59:27;43.87;;;21.80;;
10333;SDS011;5212;47.892;16.406;2023-02-08T07:01:54;44.27;;;21.23;;
10333;SDS011;5212;47.892;16.406;2023-02-08T07:04:21;41.43;;;20.47;;
10333;SDS011;5212;47.892;16.406;2023-02-08T07:06:47;40.90;;;19.63;;
10333;SDS011;5212;47.892;16.406;2023-02-08T07:09:14;42.10;;;21.23;;
10333;SDS011;5212;47.892;16.406;2023-02-08T07:11:40;40.40;;;23.43;;
10333;SDS011;5212;47.892;16.406;2023-02-08T07:14:09;113.87;;;48.40;;
10333;SDS011;5212;47.892;16.406;2023-02-08T07:16:38;119.37;;;55.40;;
10333;SDS011;5212;47.892;16.406;2023-02-08T07:19:04;95.87;;;47.87;;
10333;SDS011;5212;47.892;16.406;2023-02-08T07:21:30;96.97;;;44.83;;
10333;SDS011;5212;47.892;16.406;2023-02-08T07:23:57;76.43;;;35.73;;
10333;SDS011;5212;47.892;16.406;2023-02-08T07:26:23;62.13;;;30.70;;
10333;SDS011;5212;47.892;16.406;2023-02-08T07:28:50;56.57;;;28.53;;
10333;SDS011;5212;47.892;16.406;2023-02-08T07:31:16;65.40;;;30.27;;
10333;SDS011;5212;47.892;16.406;2023-02-08T07:33:43;54.97;;;28.77;;
10333;SDS011;5212;47.892;16.406;2023-02-08T07:36:10;56.80;;;28.80;;
10333;SDS011;5212;47.892;16.406;2023-02-08T07:38:36;49.57;;;25.90;;
10333;SDS011;5212;47.892;16.406;2023-02-08T07:41:06;46.47;;;24.90;;
10333;SDS011;5212;47.892;16.406;2023-02-08T07:43:34;56.30;;;28.53;;
10333;SDS011;5212;47.892;16.406;2023-02-08T07:46:04;56.87;;;29.50;;
10333;SDS011;5212;47.892;16.406;2023-02-08T07:48:31;52.97;;;26.60;;
10333;SDS011;5212;47.892;16.406;2023-02-08T07:50:58;48.40;;;26.23;;
10333;SDS011;5212;47.892;16.406;2023-02-08T07:53:24;86.63;;;39.30;;
10333;SDS011;5212;47.892;16.406;2023-02-08T07:55:50;104.80;;;45.60;;
10333;SDS011;5212;47.892;16.406;2023-02-08T07:58:17;79.73;;;37.73;;
10333;SDS011;5212;47.892;16.406;2023-02-08T08:00:44;64.17;;;32.33;;
10333;SDS011;5212;47.892;16.406;2023-02-08T08:03:10;76.17;;;39.53;;
10333;SDS011;5212;47.892;16.406;2023-02-08T08:05:38;61.73;;;33.10;;
10333;SDS011;5212;47.892;16.406;2023-02-08T08:08:09;58.13;;;28.80;;
10333;SDS011;5212;47.892;16.406;2023-02-08T08:10:36;52.00;;;27.20;;
10333;SDS011;5212;47.892;16.406;2023-02-08T08:13:02;50.03;;;26.20;;
10333;SDS011;5212;47.892;16.406;2023-02-08T08:15:29;51.97;;;26.60;;
10333;SDS011;5212;47.892;16.406;2023-02-08T08:17:55;50.63;;;25.87;;
10333;SDS011;5212;47.892;16.406;2023-02-08T08:20:22;48.60;;;25.97;;
10333;SDS011;5212;47.892;16.406;2023-02-08T08:22:48;40.83;;;23.17;;
10333;SDS011;5212;47.892;16.406;2023-02-08T08:25:15;47.77;;;25.93;;
10333;SDS011;5212;47.892;16.406;2023-02-08T08:27:42;47.80;;;27.27;;
10333;SDS011;5212;47.892;16.406;2023-02-08T08:30:09;49.03;;;27.90;;
10333;SDS011;5212;47.892;16.406;2023-02-08T08:32:36;57.23;;;30.87;;
10333;SDS011;5212;47.892;16.406;2023-02-08T08:35:03;49.23;;;27.07;;
10333;SDS011;5212;47.892;16.406;2023-02-08T08:37:30;48.50;;;26.20;;
10333;SDS011;5212;47.892;16.406;2023-02-08T08:39:57;47.60;;;25.20;;
10333;SDS011;5212;47.892;16.406;2023-02-08T08:42:24;44.23;;;24.17;;
10333;SDS011;5212;47.892;16.406;2023-02-08T08:44:51;44.63;;;22.80;;
10333;SDS011;5212;47.892;16.406;2023-02-08T08:47:17;44.13;;;24.13;;
10333;SDS011;5212;47.892;16.406;2023-02-08T08:49:44;43.57;;;24.70;;
10333;SDS011;5212;47.892;16.406;2023-02-08T08:52:10;46.90;;;25.00;;
10333;SDS011;5212;47.892;16.406;2023-02-08T08:54:37;50.07;;;26.30;;
10333;SDS011;5212;47.892;16.406;2023-02-08T08:57:04;45.17;;;25.73;;
10333;SDS011;5212;47.892;16.406;2023-02-08T08:59:31;45.87;;;25.20;;
10333;SDS011;5212;47.892;16.406;2023-02-08T09:01:57;46.67;;;25.80;;
10333;SDS011;5212;47.892;16.406;2023-02-08T09:04:24;47.70;;;25.37;;
10333;SDS011;5212;47.892;16.406;2023-02-08T09:06:50;76.27;;;37.00;;
10333;SDS011;5212;47.892;16.406;2023-02-08T09:09:18;49.67;;;26.70;;
10333;SDS011;5212;47.892;16.406;2023-02-08T09:11:45;49.13;;;27.00;;
10333;SDS011;5212;47.892;16.406;2023-02-08T09:14:12;47.00;;;26.37;;
10333;SDS011;5212;47.892;16.406;2023-02-08T09:16:40;46.60;;;25.33;;
10333;SDS011;5212;47.892;16.406;2023-02-08T09:19:07;55.00;;;27.90;;
10333;SDS011;5212;47.892;16.406;2023-02-08T09:21:35;53.20;;;28.87;;
10333;SDS011;5212;47.892;16.406;2023-02-08T09:24:02;49.83;;;26.10;;
10333;SDS011;5212;47.892;16.406;2023-02-08T09:26:29;78.67;;;40.47;;
10333;SDS011;5212;47.892;16.406;2023-02-08T09:28:55;85.40;;;41.90;;
10333;SDS011;5212;47.892;16.406;2023-02-08T09:31:22;59.13;;;30.43;;
10333;SDS011;5212;47.892;16.406;2023-02-08T09:33:50;51.23;;;27.73;;
10333;SDS011;5212;47.892;16.406;2023-02-08T09:36:18;49.63;;;26.33;;
10333;SDS011;5212;47.892;16.406;2023-02-08T09:38:45;46.13;;;26.30;;
10333;SDS011;5212;47.892;16.406;2023-02-08T09:41:19;50.23;;;26.43;;
10333;SDS011;5212;47.892;16.406;2023-02-08T09:43:53;45.60;;;24.17;;
10333;SDS011;5212;47.892;16.406;2023-02-08T09:46:25;43.27;;;23.97;;
10333;SDS011;5212;47.892;16.406;2023-02-08T09:48:54;44.13;;;23.73;;
10333;SDS011;5212;47.892;16.406;2023-02-08T09:51:24;46.53;;;24.23;;
10333;SDS011;5212;47.892;16.406;2023-02-08T09:53:55;49.67;;;25.87;;
10333;SDS011;5212;47.892;16.406;2023-02-08T09:56:25;42.60;;;23.90;;
10333;SDS011;5212;47.892;16.406;2023-02-08T09:58:54;71.17;;;37.23;;
10333;SDS011;5212;47.892;16.406;2023-02-08T10:01:23;57.90;;;32.00;;
10333;SDS011;5212;47.892;16.406;2023-02-08T10:03:51;56.00;;;32.33;;
10333;SDS011;5212;47.892;16.406;2023-02-08T10:06:20;40.90;;;24.17;;
10333;SDS011;5212;47.892;16.406;2023-02-08T10:08:48;43.90;;;25.30;;
10333;SDS011;5212;47.892;16.406;2023-02-08T10:11:25;40.40;;;22.23;;
10333;SDS011;5212;47.892;16.406;2023-02-08T10:17:00;50.37;;;26.70;;
10333;SDS011;5212;47.892;16.406;2023-02-08T10:19:35;44.93;;;23.43;;
10333;SDS011;5212;47.892;16.406;2023-02-08T10:22:11;48.93;;;25.97;;
10333;SDS011;5212;47.892;16.406;2023-02-08T10:24:48;42.77;;;22.97;;
10333;SDS011;5212;47.892;16.406;2023-02-08T10:27:23;46.17;;;23.33;;
10333;SDS011;5212;47.892;16.406;2023-02-08T10:30:00;44.53;;;24.00;;
10333;SDS011;5212;47.892;16.406;2023-02-08T10:32:39;49.30;;;27.23;;
10333;SDS011;5212;47.892;16.406;2023-02-08T10:35:13;41.03;;;23.83;;
10333;SDS011;5212;47.892;16.406;2023-02-08T10:37:41;41.40;;;23.77;;
10333;SDS011;5212;47.892;16.406;2023-02-08T10:40:14;41.33;;;22.20;;
10333;SDS011;5212;47.892;16.406;2023-02-08T10:42:50;37.20;;;21.23;;
10333;SDS011;5212;47.892;16.406;2023-02-08T10:45:21;40.17;;;24.13;;
10333;SDS011;5212;47.892;16.406;2023-02-08T10:47:50;41.70;;;22.63;;
10333;SDS011;5212;47.892;16.406;2023-02-08T10:50:19;41.90;;;24.03;;
10333;SDS011;5212;47.892;16.406;2023-02-08T10:52:50;44.03;;;25.60;;
10333;SDS011;5212;47.892;16.406;2023-02-08T10:55:17;39.53;;;23.57;;
10333;SDS011;5212;47.892;16.406;2023-02-08T10:57:45;45.07;;;25.63;;
10333;SDS011;5212;47.892;16.406;2023-02-08T11:00:17;45.23;;;25.20;;
10333;SDS011;5212;47.892;16.406;2023-02-08T11:02:44;38.47;;;22.83;;
10333;SDS011;5212;47.892;16.406;2023-02-08T11:05:13;43.07;;;24.20;;
10333;SDS011;5212;47.892;16.406;2023-02-08T11:07:41;44.37;;;24.53;;
10333;SDS011;5212;47.892;16.406;2023-02-08T11:10:13;49.03;;;26.83;;
10333;SDS011;5212;47.892;16.406;2023-02-08T11:12:41;39.73;;;22.77;;
10333;SDS011;5212;47.892;16.406;2023-02-08T11:15:20;41.07;;;23.93;;
10333;SDS011;5212;47.892;16.406;2023-02-08T11:17:51;49.30;;;27.40;;
10333;SDS011;5212;47.892;16.406;2023-02-08T11:20:19;43.47;;;24.73;;
10333;SDS011;5212;47.892;16.406;2023-02-08T11:22:48;53.00;;;28.67;;
10333;SDS011;5212;47.892;16.406;2023-02-08T11:27:57;47.47;;;27.20;;
10333;SDS011;5212;47.892;16.406;2023-02-08T11:30:25;45.63;;;26.73;;
10333;SDS011;5212;47.892;16.406;2023-02-08T11:35:42;44.40;;;25.23;;
10333;SDS011;5212;47.892;16.406;2023-02-08T11:38:17;45.23;;;24.87;;
10333;SDS011;5212;47.892;16.406;2023-02-08T11:40:52;41.13;;;23.07;;
10333;SDS011;5212;47.892;16.406;2023-02-08T11:43:20;41.60;;;22.87;;
10333;SDS011;5212;47.892;16.406;2023-02-08T11:45:47;37.60;;;21.53;;
10333;SDS011;5212;47.892;16.406;2023-02-08T11:48:19;37.03;;;21.37;;
10333;SDS011;5212;47.892;16.406;2023-02-08T11:50:51;38.77;;;22.77;;
10333;SDS011;5212;47.892;16.406;2023-02-08T11:53:19;36.53;;;21.83;;
10333;SDS011;5212;47.892;16.406;2023-02-08T11:58:40;38.03;;;22.10;;
10333;SDS011;5212;47.892;16.406;2023-02-08T12:01:16;38.90;;;21.77;;
10333;SDS011;5212;47.892;16.406;2023-02-08T12:03:44;31.00;;;19.40;;
10333;SDS011;5212;47.892;16.406;2023-02-08T12:06:28;36.53;;;20.87;;
10333;SDS011;5212;47.892;16.406;2023-02-08T12:09:15;34.40;;;19.70;;
10333;SDS011;5212;47.892;16.406;2023-02-08T12:11:49;30.87;;;18.37;;
10333;SDS011;5212;47.892;16.406;2023-02-08T12:14:22;33.77;;;20.07;;
10333;SDS011;5212;47.892;16.406;2023-02-08T12:16:58;35.80;;;20.77;;
10333;SDS011;5212;47.892;16.406;2023-02-08T12:22:29;44.83;;;24.93;;
10333;SDS011;5212;47.892;16.406;2023-02-08T12:24:58;47.03;;;25.77;;
10333;SDS011;5212;47.892;16.406;2023-02-08T12:27:36;43.50;;;25.60;;
10333;SDS011;5212;47.892;16.406;2023-02-08T12:30:08;40.47;;;24.07;;
10333;SDS011;5212;47.892;16.406;2023-02-08T12:35:39;30.83;;;19.27;;
10333;SDS011;5212;47.892;16.406;2023-02-08T12:38:15;41.13;;;23.93;;
10333;SDS011;5212;47.892;16.406;2023-02-08T12:41:06;37.03;;;21.57;;
10333;SDS011;5212;47.892;16.406;2023-02-08T12:43:43;36.33;;;23.10;;
10333;SDS011;5212;47.892;16.406;2023-02-08T12:46:17;43.40;;;23.53;;
10333;SDS011;5212;47.892;16.406;2023-02-08T12:48:51;40.90;;;23.30;;
10333;SDS011;5212;47.892;16.406;2023-02-08T12:51:27;32.13;;;19.57;;
10333;SDS011;5212;47.892;16.406;2023-02-08T12:53:56;38.27;;;22.17;;
10333;SDS011;5212;47.892;16.406;2023-02-08T12:56:25;35.77;;;21.80;;
10333;SDS011;5212;47.892;16.406;2023-02-08T12:58:57;40.57;;;23.10;;
10333;SDS011;5212;47.892;16.406;2023-02-08T13:01:27;36.33;;;22.70;;
10333;SDS011;5212;47.892;16.406;2023-02-08T13:03:56;39.40;;;23.43;;
10333;SDS011;5212;47.892;16.406;2023-02-08T13:06:26;40.40;;;23.63;;
10333;SDS011;5212;47.892;16.406;2023-02-08T13:08:57;35.60;;;21.93;;
10333;SDS011;5212;47.892;16.406;2023-02-08T13:11:28;36.03;;;22.03;;
10333;SDS011;5212;47.892;16.406;2023-02-08T13:13:59;35.80;;;20.17;;
10333;SDS011;5212;47.892;16.406;2023-02-08T13:16:28;30.67;;;18.03;;
10333;SDS011;5212;47.892;16.406;2023-02-08T13:19:01;35.40;;;20.37;;
10333;SDS011;5212;47.892;16.406;2023-02-08T13:21:34;33.60;;;21.93;;
10333;SDS011;5212;47.892;16.406;2023-02-08T13:24:06;28.37;;;17.07;;
10333;SDS011;5212;47.892;16.406;2023-02-08T13:26:41;29.77;;;16.80;;
10333;SDS011;5212;47.892;16.406;2023-02-08T13:29:14;26.37;;;16.27;;
10333;SDS011;5212;47.892;16.406;2023-02-08T13:31:45;23.50;;;14.77;;
10333;SDS011;5212;47.892;16.406;2023-02-08T13:34:14;21.73;;;12.53;;
10333;SDS011;5212;47.892;16.406;2023-02-08T13:36:48;21.57;;;12.93;;
10333;SDS011;5212;47.892;16.406;2023-02-08T13:39:24;20.17;;;12.63;;
10333;SDS011;5212;47.892;16.406;2023-02-08T13:42:01;22.30;;;14.17;;
10333;SDS011;5212;47.892;16.406;2023-02-08T13:44:30;26.87;;;16.63;;
10333;SDS011;5212;47.892;16.406;2023-02-08T13:46:59;20.40;;;13.17;;
10333;SDS011;5212;47.892;16.406;2023-02-08T13:49:42;15.77;;;10.93;;
10333;SDS011;5212;47.892;16.406;2023-02-08T14:01:31;11.53;;;7.60;;
10333;SDS011;5212;47.892;16.406;2023-02-08T14:06:59;12.47;;;8.47;;
10333;SDS011;5212;47.892;16.406;2023-02-08T14:09:30;13.70;;;8.40;;
10333;SDS011;5212;47.892;16.406;2023-02-08T14:12:10;15.27;;;8.77;;
10333;SDS011;5212;47.892;16.406;2023-02-08T14:14:40;12.10;;;8.20;;
10333;SDS011;5212;47.892;16.406;2023-02-08T14:17:08;13.03;;;8.43;;
10333;SDS011;5212;47.892;16.406;2023-02-08T14:19:37;13.70;;;9.40;;
10333;SDS011;5212;47.892;16.406;2023-02-08T14:22:04;14.97;;;8.73;;
10333;SDS011;5212;47.892;16.406;2023-02-08T14:24:33;13.23;;;8.37;;
10333;SDS011;5212;47.892;16.406;2023-02-08T14:27:06;15.37;;;9.37;;
10333;SDS011;5212;47.892;16.406;2023-02-08T14:29:34;16.90;;;9.03;;
10333;SDS011;5212;47.892;16.406;2023-02-08T14:32:01;13.30;;;8.37;;
10333;SDS011;5212;47.892;16.406;2023-02-08T14:34:30;12.57;;;8.23;;
10333;SDS011;5212;47.892;16.406;2023-02-08T14:37:03;13.37;;;8.03;;
10333;SDS011;5212;47.892;16.406;2023-02-08T14:39:31;14.87;;;7.63;;
10333;SDS011;5212;47.892;16.406;2023-02-08T14:41:59;12.70;;;7.53;;
10333;SDS011;5212;47.892;16.406;2023-02-08T14:53:18;12.37;;;7.87;;
10333;SDS011;5212;47.892;16.406;2023-02-08T14:56:01;11.37;;;7.03;;
10333;SDS011;5212;47.892;16.406;2023-02-08T14:58:31;10.80;;;6.90;;
10333;SDS011;5212;47.892;16.406;2023-02-08T15:01:00;9.33;;;6.40;;
10333;SDS011;5212;47.892;16.406;2023-02-08T15:03:29;11.33;;;7.00;;
10333;SDS011;5212;47.892;16.406;2023-02-08T15:08:59;14.47;;;8.97;;
10333;SDS011;5212;47.892;16.406;2023-02-08T15:11:26;12.83;;;8.13;;
10333;SDS011;5212;47.892;16.406;2023-02-08T15:13:56;12.97;;;8.40;;
10333;SDS011;5212;47.892;16.406;2023-02-08T15:16:25;14.37;;;9.30;;
10333;SDS011;5212;47.892;16.406;2023-02-08T15:18:54;13.40;;;8.50;;
10333;SDS011;5212;47.892;16.406;2023-02-08T15:21:22;12.90;;;8.27;;
10333;SDS011;5212;47.892;16.406;2023-02-08T15:23:59;13.47;;;8.37;;
10333;SDS011;5212;47.892;16.406;2023-02-08T15:26:26;15.83;;;8.67;;
10333;SDS011;5212;47.892;16.406;2023-02-08T15:28:53;13.37;;;7.60;;